createdAt,value
2022-11-28T00:02:27.093Z,7.70
2022-11-28T00:05:14.807Z,7.60
2022-11-28T00:08:02.225Z,7.60
2022-11-28T00:10:49.383Z,7.60
2022-11-28T00:13:37.284Z,7.60
2022-11-28T00:16:26.084Z,7.60
2022-11-28T00:19:14.687Z,7.50
2022-11-28T00:22:03.112Z,7.60
2022-11-28T00:24:50.806Z,7.60
2022-11-28T00:27:38.492Z,7.50
2022-11-28T00:30:25.737Z,7.60
2022-11-28T00:33:13.185Z,7.60
2022-11-28T00:36:02.761Z,7.60
2022-11-28T00:38:50.958Z,7.60
2022-11-28T00:41:38.308Z,7.60
2022-11-28T00:44:25.412Z,7.50
2022-11-28T00:47:12.643Z,7.40
2022-11-28T00:50:00.186Z,7.40
2022-11-28T00:52:47.623Z,7.40
2022-11-28T00:55:34.801Z,7.40
2022-11-28T00:58:22.123Z,7.40
2022-11-28T01:01:16.425Z,7.50
2022-11-28T01:04:06.566Z,7.60
2022-11-28T01:06:53.644Z,7.60
2022-11-28T01:09:41.022Z,7.40
2022-11-28T01:12:28.417Z,7.30
2022-11-28T01:15:15.962Z,7.20
2022-11-28T01:18:03.865Z,7.20
2022-11-28T01:20:51.327Z,7.20
2022-11-28T01:23:38.789Z,7.20
2022-11-28T01:26:28.934Z,7.10
2022-11-28T01:29:16.517Z,7.30
2022-11-28T01:32:03.807Z,7.40
2022-11-28T01:34:51.141Z,7.40
2022-11-28T01:37:38.392Z,7.50
2022-11-28T01:40:25.964Z,7.40
2022-11-28T01:43:13.353Z,7.50
2022-11-28T01:46:00.685Z,7.40
2022-11-28T01:48:48.046Z,7.40
2022-11-28T01:51:36.776Z,7.50
2022-11-28T01:54:26.306Z,7.60
2022-11-28T01:57:17.092Z,7.50
2022-11-28T02:00:17.380Z,7.50
2022-11-28T02:03:10.794Z,7.60
2022-11-28T02:05:58.942Z,7.60
2022-11-28T02:08:46.256Z,7.60
2022-11-28T02:11:48.798Z,7.60
2022-11-28T02:14:54.385Z,7.40
2022-11-28T02:18:05.383Z,7.30
2022-11-28T02:20:58.813Z,7.30
2022-11-28T02:23:58.213Z,7.20
2022-11-28T02:26:57.870Z,7.30
2022-11-28T02:30:15.766Z,7.40
2022-11-28T02:33:13.521Z,7.30
2022-11-28T02:36:06.929Z,7.30
2022-11-28T02:39:13.615Z,7.30
2022-11-28T02:42:25.290Z,7.30
2022-11-28T02:45:15.828Z,7.20
2022-11-28T02:48:15.281Z,7.20
2022-11-28T02:51:08.692Z,7.30
2022-11-28T02:53:57.562Z,7.30
2022-11-28T02:56:53.222Z,7.30
2022-11-28T02:59:43.877Z,7.40
2022-11-28T03:02:33.801Z,7.40
2022-11-28T03:05:41.836Z,7.50
2022-11-28T03:08:37.822Z,7.50
2022-11-28T03:11:37.635Z,7.40
2022-11-28T03:14:27.660Z,7.40
2022-11-28T03:17:24.028Z,7.40
2022-11-28T03:20:17.484Z,7.40
2022-11-28T03:23:23.144Z,7.40
2022-11-28T03:26:25.201Z,7.40
2022-11-28T03:29:36.847Z,7.50
2022-11-28T03:32:33.545Z,7.50
2022-11-28T03:35:23.466Z,7.60
2022-11-28T03:38:13.996Z,7.60
2022-11-28T03:41:04.255Z,7.60
2022-11-28T03:43:54.536Z,7.60
2022-11-28T03:46:48.388Z,7.50
2022-11-28T03:49:38.749Z,7.50
2022-11-28T03:52:32.080Z,7.40
2022-11-28T03:55:25.232Z,7.40
2022-11-28T03:58:21.041Z,7.40
2022-11-28T04:01:31.357Z,7.40
2022-11-28T04:04:24.731Z,7.40
2022-11-28T04:07:24.248Z,7.40
2022-11-28T04:10:35.442Z,7.40
2022-11-28T04:13:31.753Z,7.40
2022-11-28T04:16:25.305Z,7.40
2022-11-28T04:19:21.727Z,7.30
2022-11-28T04:22:18.040Z,7.30
2022-11-28T04:25:08.551Z,7.30
2022-11-28T04:28:01.659Z,7.30
2022-11-28T04:30:51.476Z,7.20
2022-11-28T04:33:42.092Z,7.20
2022-11-28T04:36:31.031Z,7.20
2022-11-28T04:39:20.705Z,7.20
2022-11-28T04:42:16.461Z,7.20
2022-11-28T04:45:12.214Z,7.20
2022-11-28T04:47:59.652Z,7.10
2022-11-28T04:50:49.964Z,7.00
2022-11-28T04:53:46.339Z,7.10
2022-11-28T04:56:36.803Z,7.10
2022-11-28T04:59:26.787Z,7.10
2022-11-28T05:02:16.579Z,7.10
2022-11-28T05:05:09.960Z,7.00
2022-11-28T05:07:59.625Z,7.00
2022-11-28T05:10:47.505Z,6.90
2022-11-28T05:13:34.745Z,6.90
2022-11-28T05:16:22.537Z,6.90
2022-11-28T05:19:09.984Z,6.90
2022-11-28T05:21:57.254Z,6.90
2022-11-28T05:24:45.126Z,6.90
2022-11-28T05:27:32.655Z,6.90
2022-11-28T05:30:20.045Z,6.90
2022-11-28T05:33:07.631Z,7.00
2022-11-28T05:35:55.776Z,7.00
2022-11-28T05:39:04.098Z,7.10
2022-11-28T05:41:51.618Z,7.00
2022-11-28T05:44:39.154Z,6.90
2022-11-28T05:47:26.432Z,6.80
2022-11-28T05:50:13.552Z,6.80
2022-11-28T05:53:01.262Z,6.60
2022-11-28T05:55:48.850Z,6.60
2022-11-28T05:58:36.473Z,6.60
2022-11-28T06:01:26.764Z,6.70
2022-11-28T06:04:14.155Z,6.70
2022-11-28T06:07:01.220Z,6.70
2022-11-28T06:09:48.881Z,6.70
2022-11-28T06:12:36.347Z,6.60
2022-11-28T06:15:23.842Z,6.60
2022-11-28T06:18:11.205Z,6.60
2022-11-28T06:21:00.037Z,6.60
2022-11-28T06:23:47.618Z,6.70
2022-11-28T06:26:34.766Z,6.70
2022-11-28T06:29:22.498Z,6.70
2022-11-28T06:32:09.663Z,6.70
2022-11-28T06:34:56.871Z,6.60
2022-11-28T06:37:44.156Z,6.60
2022-11-28T06:40:32.278Z,6.60
2022-11-28T06:43:19.643Z,6.60
2022-11-28T06:46:11.890Z,6.60
2022-11-28T06:48:57.633Z,6.50
2022-11-28T06:51:45.957Z,6.60
2022-11-28T06:54:33.053Z,6.60
2022-11-28T06:57:21.099Z,6.60
2022-11-28T07:00:09.309Z,6.60
2022-11-28T07:02:57.515Z,6.60
2022-11-28T07:05:44.960Z,6.50
2022-11-28T07:08:33.395Z,6.40
2022-11-28T07:11:23.352Z,6.40
2022-11-28T07:14:10.949Z,6.40
2022-11-28T07:16:58.326Z,6.30
2022-11-28T07:19:50.533Z,6.40
2022-11-28T07:22:34.845Z,6.50
2022-11-28T07:25:22.136Z,6.50
2022-11-28T07:28:09.261Z,6.40
2022-11-28T07:31:09.189Z,6.40
2022-11-28T07:33:56.742Z,6.40
2022-11-28T07:36:43.941Z,6.40
2022-11-28T07:39:31.341Z,6.30
2022-11-28T07:42:20.047Z,6.20
2022-11-28T07:45:08.093Z,6.20
2022-11-28T07:47:55.449Z,6.20
2022-11-28T07:50:42.915Z,6.30
2022-11-28T07:53:30.342Z,6.40
2022-11-28T07:56:20.567Z,6.50
2022-11-28T07:59:08.365Z,6.50
2022-11-28T08:01:55.868Z,6.50
2022-11-28T08:04:49.370Z,6.50
2022-11-28T08:07:32.133Z,6.50
2022-11-28T08:10:20.139Z,6.50
2022-11-28T08:13:07.411Z,6.60
2022-11-28T08:15:55.062Z,6.60
2022-11-28T08:18:43.613Z,6.60
2022-11-28T08:21:33.191Z,6.60
2022-11-28T08:24:20.707Z,6.80
2022-11-28T08:27:08.667Z,6.90
2022-11-28T08:29:56.303Z,7.00
2022-11-28T08:32:43.456Z,7.10
2022-11-28T08:35:30.951Z,7.20
2022-11-28T08:38:18.881Z,7.30
2022-11-28T08:41:11.800Z,7.30
2022-11-28T08:43:59.053Z,7.40
2022-11-28T08:46:46.577Z,7.50
2022-11-28T08:49:33.944Z,7.60
2022-11-28T08:52:22.417Z,7.80
2022-11-28T08:55:10.412Z,7.90
2022-11-28T08:57:57.621Z,8.00
2022-11-28T09:00:45.086Z,8.10
2022-11-28T09:03:32.688Z,8.20
2022-11-28T09:06:21.390Z,8.20
2022-11-28T09:09:09.045Z,8.30
2022-11-28T09:11:56.699Z,8.40
2022-11-28T09:14:44.058Z,8.40
2022-11-28T09:17:31.293Z,8.50
2022-11-28T09:20:18.554Z,8.50
2022-11-28T09:23:06.616Z,8.50
2022-11-28T09:25:53.989Z,8.60
2022-11-28T09:28:41.897Z,8.70
2022-11-28T09:31:29.417Z,8.70
2022-11-28T09:34:17.117Z,8.70
2022-11-28T09:37:05.221Z,8.80
2022-11-28T09:40:11.896Z,8.80
2022-11-28T09:42:44.482Z,8.90
2022-11-28T09:45:33.445Z,9.00
2022-11-28T09:48:32.710Z,9.10
2022-11-28T09:51:39.814Z,9.10
2022-11-28T09:54:39.213Z,9.00
2022-11-28T09:57:47.845Z,8.90
2022-11-28T10:00:41.681Z,9.10
2022-11-28T10:03:35.012Z,9.10
2022-11-28T10:06:31.378Z,9.10
2022-11-28T10:09:24.610Z,9.00
2022-11-28T10:12:43.066Z,9.00
2022-11-28T10:15:42.782Z,9.00
2022-11-28T10:18:35.914Z,9.00
2022-11-28T10:21:26.571Z,9.00
2022-11-28T10:24:20.009Z,9.20
2022-11-28T10:27:08.035Z,9.30
2022-11-28T10:29:58.649Z,9.40
2022-11-28T10:32:48.943Z,9.50
2022-11-28T10:35:41.982Z,9.60
2022-11-28T10:38:34.035Z,9.50
2022-11-28T10:41:30.389Z,9.60
2022-11-28T10:44:30.059Z,9.60
2022-11-28T10:47:22.826Z,9.70
2022-11-28T10:50:13.922Z,9.70
2022-11-28T10:53:10.372Z,9.80
2022-11-28T10:56:11.299Z,9.80
2022-11-28T10:59:01.029Z,9.90
2022-11-28T11:01:50.447Z,9.90
2022-11-28T11:04:40.011Z,10.00
2022-11-28T11:07:31.065Z,10.00
2022-11-28T11:10:21.904Z,10.00
2022-11-28T11:13:19.409Z,9.90
2022-11-28T11:16:12.190Z,9.70
2022-11-28T11:18:59.146Z,9.70
2022-11-28T11:21:49.591Z,9.80
2022-11-28T11:24:37.140Z,9.90
2022-11-28T11:27:24.775Z,10.00
2022-11-28T11:30:21.616Z,10.00
2022-11-28T11:33:14.591Z,9.80
2022-11-28T11:36:05.576Z,9.90
2022-11-28T11:38:53.602Z,9.80
2022-11-28T11:41:43.607Z,9.90
2022-11-28T11:44:35.013Z,9.90
2022-11-28T11:47:34.381Z,9.90
2022-11-28T11:50:24.718Z,9.90
2022-11-28T11:53:14.422Z,9.90
2022-11-28T11:56:04.104Z,9.70
2022-11-28T11:58:54.655Z,9.50
2022-11-28T12:01:44.093Z,9.20
2022-11-28T12:04:52.433Z,9.10
2022-11-28T12:07:33.436Z,9.00
2022-11-28T12:10:23.826Z,9.00
2022-11-28T12:13:14.082Z,9.10
2022-11-28T12:16:33.172Z,9.10
2022-11-28T12:19:29.619Z,8.90
2022-11-28T12:22:25.368Z,8.90
2022-11-28T12:25:15.438Z,9.00
2022-11-28T12:28:08.819Z,9.10
2022-11-28T12:31:21.548Z,9.10
2022-11-28T12:34:27.057Z,9.20
2022-11-28T12:37:55.167Z,9.40
2022-11-28T12:40:43.358Z,9.50
2022-11-28T12:43:51.562Z,9.50
2022-11-28T12:47:03.208Z,9.60
2022-11-28T12:50:16.571Z,9.60
2022-11-28T12:53:12.779Z,9.50
2022-11-28T12:56:02.999Z,9.30
2022-11-28T12:59:05.213Z,9.40
2022-11-28T13:01:55.968Z,9.40
2022-11-28T13:04:51.486Z,9.50
2022-11-28T13:08:11.320Z,9.60
2022-11-28T13:11:22.693Z,9.40
2022-11-28T13:14:15.768Z,9.30
2022-11-28T13:17:14.648Z,9.20
2022-11-28T13:20:12.288Z,9.30
2022-11-28T13:23:20.408Z,9.30
2022-11-28T13:26:22.970Z,9.40
2022-11-28T13:29:19.446Z,9.30
2022-11-28T13:32:15.160Z,9.30
2022-11-28T13:35:03.643Z,9.10
2022-11-28T13:38:48.279Z,9.00
2022-11-28T13:41:59.521Z,9.00
2022-11-28T13:44:26.619Z,9.00
2022-11-28T13:47:27.728Z,9.00
2022-11-28T13:50:32.695Z,8.90
2022-11-28T13:53:25.637Z,8.70
2022-11-28T13:56:27.620Z,8.90
2022-11-28T13:59:20.827Z,8.90
2022-11-28T14:02:23.085Z,8.90
2022-11-28T14:05:25.967Z,8.90
2022-11-28T14:08:08.376Z,8.90
2022-11-28T14:11:05.599Z,9.00
2022-11-28T14:14:13.804Z,9.10
2022-11-28T14:17:30.296Z,9.10
2022-11-28T14:20:40.275Z,9.10
2022-11-28T14:23:39.809Z,8.90
2022-11-28T14:26:37.199Z,9.00
2022-11-28T14:29:28.030Z,8.90
2022-11-28T14:32:31.432Z,8.90
2022-11-28T14:35:38.281Z,8.90
2022-11-28T14:38:34.559Z,9.00
2022-11-28T14:41:21.925Z,9.20
2022-11-28T14:44:46.209Z,9.20
2022-11-28T14:47:36.889Z,9.10
2022-11-28T14:50:27.338Z,9.00
2022-11-28T14:53:37.946Z,9.10
2022-11-28T14:56:29.634Z,9.00
2022-11-28T14:59:19.114Z,9.20
2022-11-28T15:02:15.839Z,9.30
2022-11-28T15:05:12.251Z,9.20
2022-11-28T15:08:20.262Z,9.20
2022-11-28T15:11:23.609Z,9.20
2022-11-28T15:14:16.788Z,9.20
2022-11-28T15:17:08.392Z,9.20
2022-11-28T15:19:57.199Z,9.30
2022-11-28T15:22:46.471Z,9.30
2022-11-28T15:25:35.539Z,9.30
2022-11-28T15:28:25.310Z,9.30
2022-11-28T15:31:15.816Z,9.40
2022-11-28T15:34:03.546Z,9.40
2022-11-28T15:36:53.872Z,9.50
2022-11-28T15:39:42.342Z,9.60
2022-11-28T15:42:37.709Z,9.60
2022-11-28T15:45:28.431Z,9.70
2022-11-28T15:48:39.709Z,9.70
2022-11-28T15:51:32.764Z,9.80
2022-11-28T15:54:25.867Z,9.80
2022-11-28T15:57:23.400Z,9.90
2022-11-28T16:00:19.610Z,9.90
2022-11-28T16:03:07.682Z,9.90
2022-11-28T16:05:58.106Z,9.90
2022-11-28T16:09:01.091Z,9.90
2022-11-28T16:11:51.498Z,10.00
2022-11-28T16:14:42.011Z,10.00
2022-11-28T16:17:34.525Z,10.00
2022-11-28T16:20:30.889Z,10.00
2022-11-28T16:23:23.782Z,10.00
2022-11-28T16:26:29.257Z,10.00
2022-11-28T16:29:16.391Z,10.00
2022-11-28T16:32:27.848Z,10.00
2022-11-28T16:35:18.134Z,10.00
2022-11-28T16:38:15.142Z,10.00
2022-11-28T16:41:02.842Z,10.00
2022-11-28T16:43:59.139Z,9.80
2022-11-28T16:46:58.220Z,9.70
2022-11-28T16:49:51.243Z,9.70
2022-11-28T16:52:47.174Z,9.80
2022-11-28T16:55:40.383Z,9.90
2022-11-28T16:58:27.684Z,9.90
2022-11-28T17:01:14.884Z,9.90
2022-11-28T17:04:01.801Z,9.90
2022-11-28T17:06:49.221Z,9.90
2022-11-28T17:09:36.694Z,9.90
2022-11-28T17:12:36.021Z,9.90
2022-11-28T17:15:23.585Z,10.00
2022-11-28T17:18:10.806Z,10.00
2022-11-28T17:20:59.738Z,10.00
2022-11-28T17:23:47.119Z,10.00
2022-11-28T17:26:34.290Z,10.10
2022-11-28T17:29:24.556Z,10.10
2022-11-28T17:32:14.554Z,10.10
2022-11-28T17:35:03.463Z,10.10
2022-11-28T17:37:50.874Z,10.10
2022-11-28T17:40:40.309Z,10.20
2022-11-28T17:43:27.750Z,10.10
2022-11-28T17:46:14.920Z,10.10
2022-11-28T17:49:02.399Z,10.10
2022-11-28T17:51:50.778Z,10.20
2022-11-28T17:54:38.137Z,10.10
2022-11-28T17:57:25.415Z,10.10
2022-11-28T18:00:13.848Z,10.00
2022-11-28T18:03:01.246Z,9.90
2022-11-28T18:05:50.524Z,9.70
2022-11-28T18:08:38.012Z,9.70
2022-11-28T18:11:26.076Z,9.70
2022-11-28T18:14:13.934Z,9.70
2022-11-28T18:17:01.073Z,9.80
2022-11-28T18:19:48.989Z,9.80
2022-11-28T18:22:37.857Z,9.80
2022-11-28T18:25:25.987Z,9.90
2022-11-28T18:28:18.811Z,9.80
2022-11-28T18:31:15.181Z,9.70
2022-11-28T18:34:05.585Z,9.70
2022-11-28T18:36:54.667Z,9.70
2022-11-28T18:39:42.362Z,9.70
2022-11-28T18:42:29.967Z,9.70
2022-11-28T18:45:17.106Z,9.70
2022-11-28T18:48:04.514Z,9.80
2022-11-28T18:50:51.851Z,9.80
2022-11-28T18:53:39.600Z,9.80
2022-11-28T18:56:29.357Z,9.80
2022-11-28T18:59:16.657Z,9.80
2022-11-28T19:02:03.855Z,9.80
2022-11-28T19:04:51.119Z,9.90
2022-11-28T19:07:38.621Z,10.00
2022-11-28T19:10:26.024Z,9.90
2022-11-28T19:13:13.245Z,9.90
2022-11-28T19:16:02.399Z,9.90
2022-11-28T19:18:50.101Z,9.90
2022-11-28T19:21:38.522Z,10.00
2022-11-28T19:24:25.949Z,10.00
2022-11-28T19:27:14.677Z,10.10
2022-11-28T19:30:02.100Z,10.10
2022-11-28T19:32:49.585Z,10.10
2022-11-28T19:35:37.021Z,10.10
2022-11-28T19:38:24.612Z,10.20
2022-11-28T19:41:17.388Z,10.20
2022-11-28T19:44:04.469Z,10.10
2022-11-28T19:46:52.861Z,10.20
2022-11-28T19:49:39.931Z,10.20
2022-11-28T19:52:28.886Z,10.20
2022-11-28T19:55:16.011Z,10.20
2022-11-28T19:58:03.409Z,10.20
2022-11-28T20:00:50.662Z,10.20
2022-11-28T20:03:39.587Z,10.20
2022-11-28T20:06:29.623Z,10.30
2022-11-28T20:09:16.791Z,10.20
2022-11-28T20:12:04.045Z,10.20
2022-11-28T20:14:51.527Z,10.10
2022-11-28T20:17:38.655Z,10.10
2022-11-28T20:20:26.083Z,10.10
2022-11-28T20:23:13.355Z,10.10
2022-11-28T20:26:06.142Z,10.00
2022-11-28T20:28:57.076Z,10.00
2022-11-28T20:31:46.168Z,10.00
2022-11-28T20:34:33.831Z,10.00
2022-11-28T20:37:20.996Z,10.00
2022-11-28T20:40:09.125Z,10.00
2022-11-28T20:42:56.654Z,10.00
2022-11-28T20:45:45.618Z,10.00
2022-11-28T20:48:33.166Z,10.00
2022-11-28T20:51:24.911Z,10.10
2022-11-28T20:54:13.504Z,10.00
2022-11-28T20:59:49.486Z,10.00
2022-11-28T21:02:36.824Z,10.00
2022-11-28T21:05:24.439Z,10.00
2022-11-28T21:08:11.634Z,10.00
2022-11-28T21:10:59.124Z,10.10
2022-11-28T21:13:46.814Z,10.10
2022-11-28T21:16:36.996Z,10.00
2022-11-28T21:19:24.517Z,10.00
2022-11-28T21:22:11.700Z,10.00
2022-11-28T21:24:59.001Z,10.00
2022-11-28T21:27:46.832Z,10.00
2022-11-28T21:30:36.557Z,10.10
2022-11-28T21:33:23.966Z,10.00
2022-11-28T21:36:11.915Z,10.00
2022-11-28T21:39:01.798Z,10.00
2022-11-28T21:41:50.912Z,10.00
2022-11-28T21:44:38.308Z,9.90
2022-11-28T21:47:25.489Z,9.90
2022-11-28T21:50:14.062Z,9.90
2022-11-28T21:53:01.678Z,9.90
2022-11-28T21:55:48.970Z,10.00
2022-11-28T21:58:36.270Z,10.00
2022-11-28T22:01:23.900Z,10.10
2022-11-28T22:04:12.198Z,10.00
2022-11-28T22:06:59.586Z,10.00
2022-11-28T22:09:48.681Z,10.10
2022-11-28T22:12:35.925Z,10.10
2022-11-28T22:15:23.469Z,10.10
2022-11-28T22:18:11.962Z,10.00
2022-11-28T22:21:17.374Z,10.10
2022-11-28T22:23:55.422Z,10.00
2022-11-28T22:26:42.697Z,10.10
2022-11-28T22:29:30.103Z,10.00
2022-11-28T22:32:18.327Z,9.90
2022-11-28T22:35:07.754Z,9.90
2022-11-28T22:37:54.996Z,10.00
2022-11-28T22:40:42.530Z,10.00
2022-11-28T22:43:29.978Z,10.10
2022-11-28T22:46:17.836Z,10.00
2022-11-28T22:49:06.782Z,10.10
2022-11-28T22:51:54.456Z,10.10
2022-11-28T22:54:41.890Z,10.10
2022-11-28T22:57:29.480Z,10.20
2022-11-28T23:00:17.202Z,10.20
2022-11-28T23:03:04.977Z,10.10
2022-11-28T23:05:52.300Z,10.20
2022-11-28T23:08:40.205Z,10.10
2022-11-28T23:11:30.264Z,10.10
2022-11-28T23:14:17.567Z,10.20
2022-11-28T23:17:04.791Z,10.20
2022-11-28T23:19:52.184Z,10.10
2022-11-28T23:22:39.778Z,10.20
2022-11-28T23:25:27.052Z,10.20
2022-11-28T23:28:14.315Z,10.20
2022-11-28T23:31:13.933Z,10.20
2022-11-28T23:34:03.062Z,10.20
2022-11-28T23:36:50.277Z,10.00
2022-11-28T23:39:37.500Z,10.00
2022-11-28T23:42:25.132Z,10.10
2022-11-28T23:45:14.650Z,10.00
2022-11-28T23:48:01.877Z,10.00
2022-11-28T23:50:49.410Z,10.00
2022-11-28T23:53:37.875Z,10.00
2022-11-28T23:56:27.764Z,10.00
2022-11-28T23:59:15.226Z,10.00
